sensor_id;sensor_type;location;lat;lon;timestamp;P1;durP1;ratioP1;P2;durP2;ratioP2
56503;SDS011;48812;51.606;-0.114;2023-03-31T00:00:22;5.00;;;2.03;;
56503;SDS011;48812;51.606;-0.114;2023-03-31T00:02:55;5.30;;;2.13;;
56503;SDS011;48812;51.606;-0.114;2023-03-31T00:05:29;6.68;;;1.90;;
56503;SDS011;48812;51.606;-0.114;2023-03-31T00:08:04;7.00;;;1.73;;
56503;SDS011;48812;51.606;-0.114;2023-03-31T00:10:43;6.65;;;2.25;;
56503;SDS011;48812;51.606;-0.114;2023-03-31T00:13:17;6.25;;;2.03;;
56503;SDS011;48812;51.606;-0.114;2023-03-31T00:15:54;8.02;;;2.40;;
56503;SDS011;48812;51.606;-0.114;2023-03-31T00:18:28;8.25;;;2.30;;
56503;SDS011;48812;51.606;-0.114;2023-03-31T00:21:05;8.85;;;1.85;;
56503;SDS011;48812;51.606;-0.114;2023-03-31T00:23:46;6.63;;;1.90;;
56503;SDS011;48812;51.606;-0.114;2023-03-31T00:26:21;6.32;;;1.70;;
56503;SDS011;48812;51.606;-0.114;2023-03-31T00:28:54;5.63;;;1.65;;
56503;SDS011;48812;51.606;-0.114;2023-03-31T00:31:27;4.40;;;1.67;;
56503;SDS011;48812;51.606;-0.114;2023-03-31T00:34:00;4.47;;;1.45;;
56503;SDS011;48812;51.606;-0.114;2023-03-31T00:36:33;5.72;;;1.75;;
56503;SDS011;48812;51.606;-0.114;2023-03-31T00:39:08;7.03;;;1.83;;
56503;SDS011;48812;51.606;-0.114;2023-03-31T00:41:40;8.90;;;2.30;;
56503;SDS011;48812;51.606;-0.114;2023-03-31T00:46:55;6.40;;;1.85;;
56503;SDS011;48812;51.606;-0.114;2023-03-31T00:49:36;5.57;;;1.67;;
56503;SDS011;48812;51.606;-0.114;2023-03-31T00:52:33;8.73;;;2.35;;
56503;SDS011;48812;51.606;-0.114;2023-03-31T00:55:09;6.47;;;1.90;;
56503;SDS011;48812;51.606;-0.114;2023-03-31T00:57:46;5.88;;;2.03;;
56503;SDS011;48812;51.606;-0.114;2023-03-31T01:02:55;5.93;;;1.83;;
56503;SDS011;48812;51.606;-0.114;2023-03-31T01:05:35;6.55;;;1.85;;
56503;SDS011;48812;51.606;-0.114;2023-03-31T01:08:13;7.47;;;1.80;;
56503;SDS011;48812;51.606;-0.114;2023-03-31T01:10:53;8.25;;;1.92;;
56503;SDS011;48812;51.606;-0.114;2023-03-31T01:13:28;5.55;;;1.55;;
56503;SDS011;48812;51.606;-0.114;2023-03-31T01:16:03;7.05;;;1.85;;
56503;SDS011;48812;51.606;-0.114;2023-03-31T01:18:36;5.35;;;1.75;;
56503;SDS011;48812;51.606;-0.114;2023-03-31T01:27:31;4.72;;;1.33;;
56503;SDS011;48812;51.606;-0.114;2023-03-31T01:36:06;5.65;;;1.50;;
56503;SDS011;48812;51.606;-0.114;2023-03-31T01:47:09;4.30;;;1.48;;
56503;SDS011;48812;51.606;-0.114;2023-03-31T01:55:34;4.45;;;1.27;;
56503;SDS011;48812;51.606;-0.114;2023-03-31T01:58:11;4.35;;;1.50;;
56503;SDS011;48812;51.606;-0.114;2023-03-31T02:00:52;5.03;;;1.42;;
56503;SDS011;48812;51.606;-0.114;2023-03-31T02:03:34;6.45;;;1.77;;
56503;SDS011;48812;51.606;-0.114;2023-03-31T02:06:17;4.53;;;1.35;;
56503;SDS011;48812;51.606;-0.114;2023-03-31T02:08:59;5.63;;;1.50;;
56503;SDS011;48812;51.606;-0.114;2023-03-31T02:11:35;6.28;;;1.80;;
56503;SDS011;48812;51.606;-0.114;2023-03-31T02:14:10;5.03;;;1.40;;
56503;SDS011;48812;51.606;-0.114;2023-03-31T02:16:51;3.83;;;1.35;;
56503;SDS011;48812;51.606;-0.114;2023-03-31T02:19:34;6.68;;;1.83;;
56503;SDS011;48812;51.606;-0.114;2023-03-31T02:22:11;4.82;;;1.58;;
56503;SDS011;48812;51.606;-0.114;2023-03-31T02:24:44;4.85;;;1.55;;
56503;SDS011;48812;51.606;-0.114;2023-03-31T02:27:24;6.47;;;1.75;;
56503;SDS011;48812;51.606;-0.114;2023-03-31T02:29:58;8.02;;;1.60;;
56503;SDS011;48812;51.606;-0.114;2023-03-31T02:32:36;5.32;;;1.50;;
56503;SDS011;48812;51.606;-0.114;2023-03-31T02:35:18;3.97;;;1.50;;
56503;SDS011;48812;51.606;-0.114;2023-03-31T02:37:52;4.50;;;1.58;;
56503;SDS011;48812;51.606;-0.114;2023-03-31T02:40:25;4.87;;;1.67;;
56503;SDS011;48812;51.606;-0.114;2023-03-31T02:42:58;5.38;;;1.83;;
56503;SDS011;48812;51.606;-0.114;2023-03-31T02:45:48;2.28;;;0.90;;
56503;SDS011;48812;51.606;-0.114;2023-03-31T02:48:26;3.72;;;1.23;;
56503;SDS011;48812;51.606;-0.114;2023-03-31T03:00:08;5.38;;;1.60;;
56503;SDS011;48812;51.606;-0.114;2023-03-31T03:09:33;3.88;;;1.17;;
56503;SDS011;48812;51.606;-0.114;2023-03-31T03:12:18;3.95;;;1.33;;
56503;SDS011;48812;51.606;-0.114;2023-03-31T03:15:07;3.28;;;1.40;;
56503;SDS011;48812;51.606;-0.114;2023-03-31T03:17:46;4.05;;;1.27;;
56503;SDS011;48812;51.606;-0.114;2023-03-31T03:20:21;3.75;;;1.20;;
56503;SDS011;48812;51.606;-0.114;2023-03-31T03:22:53;4.57;;;1.50;;
56503;SDS011;48812;51.606;-0.114;2023-03-31T03:25:26;3.50;;;1.33;;
56503;SDS011;48812;51.606;-0.114;2023-03-31T03:28:01;4.40;;;1.27;;
56503;SDS011;48812;51.606;-0.114;2023-03-31T03:30:33;5.00;;;1.73;;
56503;SDS011;48812;51.606;-0.114;2023-03-31T03:33:06;4.05;;;1.58;;
56503;SDS011;48812;51.606;-0.114;2023-03-31T03:35:38;3.63;;;1.33;;
56503;SDS011;48812;51.606;-0.114;2023-03-31T03:38:10;3.65;;;1.38;;
56503;SDS011;48812;51.606;-0.114;2023-03-31T03:40:43;6.40;;;1.43;;
56503;SDS011;48812;51.606;-0.114;2023-03-31T03:43:15;3.93;;;1.27;;
56503;SDS011;48812;51.606;-0.114;2023-03-31T03:45:48;4.30;;;1.20;;
56503;SDS011;48812;51.606;-0.114;2023-03-31T03:48:23;4.13;;;1.38;;
56503;SDS011;48812;51.606;-0.114;2023-03-31T03:50:58;5.83;;;1.30;;
56503;SDS011;48812;51.606;-0.114;2023-03-31T03:53:33;4.15;;;1.20;;
56503;SDS011;48812;51.606;-0.114;2023-03-31T03:56:05;4.17;;;1.50;;
56503;SDS011;48812;51.606;-0.114;2023-03-31T03:58:38;3.65;;;1.30;;
56503;SDS011;48812;51.606;-0.114;2023-03-31T04:01:11;5.22;;;1.50;;
56503;SDS011;48812;51.606;-0.114;2023-03-31T04:03:43;5.00;;;1.40;;
56503;SDS011;48812;51.606;-0.114;2023-03-31T04:06:16;5.20;;;1.60;;
56503;SDS011;48812;51.606;-0.114;2023-03-31T04:08:49;6.78;;;1.33;;
56503;SDS011;48812;51.606;-0.114;2023-03-31T04:11:21;3.28;;;1.20;;
56503;SDS011;48812;51.606;-0.114;2023-03-31T04:13:54;7.15;;;1.83;;
56503;SDS011;48812;51.606;-0.114;2023-03-31T04:16:27;4.93;;;1.52;;
56503;SDS011;48812;51.606;-0.114;2023-03-31T04:18:59;3.72;;;1.23;;
56503;SDS011;48812;51.606;-0.114;2023-03-31T04:21:46;3.67;;;1.65;;
56503;SDS011;48812;51.606;-0.114;2023-03-31T04:24:29;5.88;;;1.83;;
56503;SDS011;48812;51.606;-0.114;2023-03-31T04:27:04;6.20;;;1.50;;
56503;SDS011;48812;51.606;-0.114;2023-03-31T04:29:38;5.85;;;1.50;;
56503;SDS011;48812;51.606;-0.114;2023-03-31T04:34:46;5.28;;;1.42;;
56503;SDS011;48812;51.606;-0.114;2023-03-31T04:37:21;5.45;;;1.50;;
56503;SDS011;48812;51.606;-0.114;2023-03-31T04:39:59;5.75;;;1.70;;
56503;SDS011;48812;51.606;-0.114;2023-03-31T04:42:39;6.45;;;1.55;;
56503;SDS011;48812;51.606;-0.114;2023-03-31T04:45:11;6.32;;;1.67;;
56503;SDS011;48812;51.606;-0.114;2023-03-31T04:47:44;4.30;;;1.50;;
56503;SDS011;48812;51.606;-0.114;2023-03-31T04:50:16;4.40;;;1.40;;
56503;SDS011;48812;51.606;-0.114;2023-03-31T04:52:49;7.37;;;1.83;;
56503;SDS011;48812;51.606;-0.114;2023-03-31T04:55:21;4.53;;;1.45;;
56503;SDS011;48812;51.606;-0.114;2023-03-31T04:57:54;3.30;;;1.27;;
56503;SDS011;48812;51.606;-0.114;2023-03-31T05:00:26;5.10;;;1.42;;
56503;SDS011;48812;51.606;-0.114;2023-03-31T05:02:59;4.53;;;1.58;;
56503;SDS011;48812;51.606;-0.114;2023-03-31T05:05:32;5.45;;;1.70;;
56503;SDS011;48812;51.606;-0.114;2023-03-31T05:08:05;6.60;;;1.50;;
56503;SDS011;48812;51.606;-0.114;2023-03-31T05:10:38;4.35;;;1.58;;
56503;SDS011;48812;51.606;-0.114;2023-03-31T05:13:10;5.33;;;1.67;;
56503;SDS011;48812;51.606;-0.114;2023-03-31T05:15:43;5.53;;;1.52;;
56503;SDS011;48812;51.606;-0.114;2023-03-31T05:20:48;4.95;;;1.55;;
56503;SDS011;48812;51.606;-0.114;2023-03-31T05:23:21;4.70;;;1.40;;
56503;SDS011;48812;51.606;-0.114;2023-03-31T05:25:53;7.57;;;1.85;;
56503;SDS011;48812;51.606;-0.114;2023-03-31T05:28:26;7.88;;;2.00;;
56503;SDS011;48812;51.606;-0.114;2023-03-31T05:31:01;6.30;;;1.80;;
56503;SDS011;48812;51.606;-0.114;2023-03-31T05:33:34;6.93;;;1.60;;
56503;SDS011;48812;51.606;-0.114;2023-03-31T05:36:12;5.32;;;1.77;;
56503;SDS011;48812;51.606;-0.114;2023-03-31T05:38:46;7.25;;;2.10;;
56503;SDS011;48812;51.606;-0.114;2023-03-31T05:41:19;6.05;;;1.55;;
56503;SDS011;48812;51.606;-0.114;2023-03-31T05:43:52;7.07;;;1.92;;
56503;SDS011;48812;51.606;-0.114;2023-03-31T05:46:24;6.55;;;1.77;;
56503;SDS011;48812;51.606;-0.114;2023-03-31T05:51:29;5.93;;;1.50;;
56503;SDS011;48812;51.606;-0.114;2023-03-31T05:54:02;7.37;;;2.40;;
56503;SDS011;48812;51.606;-0.114;2023-03-31T05:56:34;5.85;;;1.80;;
56503;SDS011;48812;51.606;-0.114;2023-03-31T05:59:07;5.53;;;1.67;;
56503;SDS011;48812;51.606;-0.114;2023-03-31T06:01:39;7.30;;;1.70;;
56503;SDS011;48812;51.606;-0.114;2023-03-31T06:04:12;3.92;;;1.50;;
56503;SDS011;48812;51.606;-0.114;2023-03-31T06:06:45;5.77;;;1.50;;
56503;SDS011;48812;51.606;-0.114;2023-03-31T06:09:21;5.10;;;1.70;;
56503;SDS011;48812;51.606;-0.114;2023-03-31T06:11:53;11.57;;;1.77;;
56503;SDS011;48812;51.606;-0.114;2023-03-31T06:14:26;4.47;;;1.67;;
56503;SDS011;48812;51.606;-0.114;2023-03-31T06:19:31;4.28;;;1.35;;
56503;SDS011;48812;51.606;-0.114;2023-03-31T06:22:03;5.43;;;1.70;;
56503;SDS011;48812;51.606;-0.114;2023-03-31T06:24:36;7.22;;;1.60;;
56503;SDS011;48812;51.606;-0.114;2023-03-31T06:27:08;3.97;;;1.57;;
56503;SDS011;48812;51.606;-0.114;2023-03-31T06:29:41;4.20;;;1.50;;
56503;SDS011;48812;51.606;-0.114;2023-03-31T06:32:13;7.20;;;1.83;;
56503;SDS011;48812;51.606;-0.114;2023-03-31T06:34:46;5.20;;;1.37;;
56503;SDS011;48812;51.606;-0.114;2023-03-31T06:37:18;7.13;;;1.80;;
56503;SDS011;48812;51.606;-0.114;2023-03-31T06:39:50;5.55;;;1.63;;
56503;SDS011;48812;51.606;-0.114;2023-03-31T06:42:23;6.03;;;1.67;;
56503;SDS011;48812;51.606;-0.114;2023-03-31T06:44:55;5.83;;;1.80;;
56503;SDS011;48812;51.606;-0.114;2023-03-31T06:47:28;4.27;;;1.90;;
56503;SDS011;48812;51.606;-0.114;2023-03-31T06:50:00;4.85;;;1.65;;
56503;SDS011;48812;51.606;-0.114;2023-03-31T06:52:33;5.45;;;2.00;;
56503;SDS011;48812;51.606;-0.114;2023-03-31T06:57:39;7.75;;;1.90;;
56503;SDS011;48812;51.606;-0.114;2023-03-31T07:00:12;5.80;;;1.73;;
56503;SDS011;48812;51.606;-0.114;2023-03-31T07:02:45;6.05;;;1.80;;
56503;SDS011;48812;51.606;-0.114;2023-03-31T07:05:17;6.40;;;2.33;;
56503;SDS011;48812;51.606;-0.114;2023-03-31T07:07:51;5.95;;;2.20;;
56503;SDS011;48812;51.606;-0.114;2023-03-31T07:10:28;7.82;;;2.17;;
56503;SDS011;48812;51.606;-0.114;2023-03-31T07:13:01;6.43;;;1.80;;
56503;SDS011;48812;51.606;-0.114;2023-03-31T07:15:36;7.63;;;1.73;;
56503;SDS011;48812;51.606;-0.114;2023-03-31T07:18:08;6.77;;;2.17;;
56503;SDS011;48812;51.606;-0.114;2023-03-31T07:20:41;14.00;;;2.40;;
56503;SDS011;48812;51.606;-0.114;2023-03-31T07:23:14;5.40;;;1.73;;
56503;SDS011;48812;51.606;-0.114;2023-03-31T07:25:47;10.18;;;2.40;;
56503;SDS011;48812;51.606;-0.114;2023-03-31T07:28:20;17.15;;;2.08;;
56503;SDS011;48812;51.606;-0.114;2023-03-31T07:30:52;13.70;;;2.20;;
56503;SDS011;48812;51.606;-0.114;2023-03-31T07:33:25;6.10;;;2.13;;
56503;SDS011;48812;51.606;-0.114;2023-03-31T07:35:57;9.87;;;2.20;;
56503;SDS011;48812;51.606;-0.114;2023-03-31T07:38:44;11.23;;;2.08;;
56503;SDS011;48812;51.606;-0.114;2023-03-31T07:41:18;12.38;;;2.35;;
56503;SDS011;48812;51.606;-0.114;2023-03-31T07:43:52;6.97;;;2.10;;
56503;SDS011;48812;51.606;-0.114;2023-03-31T07:46:25;11.40;;;2.03;;
56503;SDS011;48812;51.606;-0.114;2023-03-31T07:48:58;7.45;;;2.25;;
56503;SDS011;48812;51.606;-0.114;2023-03-31T07:51:34;7.43;;;1.85;;
56503;SDS011;48812;51.606;-0.114;2023-03-31T07:54:06;12.00;;;2.60;;
56503;SDS011;48812;51.606;-0.114;2023-03-31T07:56:39;7.60;;;2.03;;
56503;SDS011;48812;51.606;-0.114;2023-03-31T07:59:12;5.47;;;2.22;;
56503;SDS011;48812;51.606;-0.114;2023-03-31T08:01:45;11.27;;;2.20;;
56503;SDS011;48812;51.606;-0.114;2023-03-31T08:04:17;9.43;;;1.77;;
56503;SDS011;48812;51.606;-0.114;2023-03-31T08:06:50;8.63;;;2.00;;
56503;SDS011;48812;51.606;-0.114;2023-03-31T08:09:22;10.00;;;2.17;;
56503;SDS011;48812;51.606;-0.114;2023-03-31T08:11:55;5.30;;;2.30;;
56503;SDS011;48812;51.606;-0.114;2023-03-31T08:14:27;6.45;;;1.90;;
56503;SDS011;48812;51.606;-0.114;2023-03-31T08:17:12;9.13;;;2.28;;
56503;SDS011;48812;51.606;-0.114;2023-03-31T08:19:44;4.90;;;1.67;;
56503;SDS011;48812;51.606;-0.114;2023-03-31T08:22:19;5.90;;;2.17;;
56503;SDS011;48812;51.606;-0.114;2023-03-31T08:24:51;8.75;;;2.05;;
56503;SDS011;48812;51.606;-0.114;2023-03-31T08:27:24;6.38;;;2.00;;
56503;SDS011;48812;51.606;-0.114;2023-03-31T08:29:57;5.85;;;2.03;;
56503;SDS011;48812;51.606;-0.114;2023-03-31T08:32:30;9.03;;;2.20;;
56503;SDS011;48812;51.606;-0.114;2023-03-31T08:35:03;6.95;;;2.00;;
56503;SDS011;48812;51.606;-0.114;2023-03-31T08:37:36;5.78;;;2.20;;
56503;SDS011;48812;51.606;-0.114;2023-03-31T08:40:13;6.97;;;2.45;;
56503;SDS011;48812;51.606;-0.114;2023-03-31T08:43:13;6.65;;;2.38;;
56503;SDS011;48812;51.606;-0.114;2023-03-31T08:45:47;7.93;;;2.45;;
56503;SDS011;48812;51.606;-0.114;2023-03-31T08:51:08;6.60;;;1.95;;
56503;SDS011;48812;51.606;-0.114;2023-03-31T08:56:32;4.80;;;1.77;;
56503;SDS011;48812;51.606;-0.114;2023-03-31T08:59:17;7.47;;;2.08;;
56503;SDS011;48812;51.606;-0.114;2023-03-31T09:16:51;8.32;;;2.20;;
56503;SDS011;48812;51.606;-0.114;2023-03-31T09:22:31;5.88;;;2.00;;
56503;SDS011;48812;51.606;-0.114;2023-03-31T09:25:09;7.25;;;2.20;;
56503;SDS011;48812;51.606;-0.114;2023-03-31T09:27:47;9.23;;;2.33;;
56503;SDS011;48812;51.606;-0.114;2023-03-31T09:30:26;6.53;;;2.33;;
56503;SDS011;48812;51.606;-0.114;2023-03-31T09:33:09;9.93;;;2.30;;
56503;SDS011;48812;51.606;-0.114;2023-03-31T09:35:45;7.20;;;2.20;;
56503;SDS011;48812;51.606;-0.114;2023-03-31T09:38:21;6.60;;;2.08;;
56503;SDS011;48812;51.606;-0.114;2023-03-31T09:40:57;6.85;;;2.38;;
56503;SDS011;48812;51.606;-0.114;2023-03-31T09:43:32;7.88;;;2.10;;
56503;SDS011;48812;51.606;-0.114;2023-03-31T09:46:14;7.97;;;2.10;;
56503;SDS011;48812;51.606;-0.114;2023-03-31T09:48:54;6.90;;;2.10;;
56503;SDS011;48812;51.606;-0.114;2023-03-31T09:51:33;6.80;;;2.08;;
56503;SDS011;48812;51.606;-0.114;2023-03-31T09:56:50;6.53;;;2.03;;
56503;SDS011;48812;51.606;-0.114;2023-03-31T09:59:30;6.65;;;2.00;;
56503;SDS011;48812;51.606;-0.114;2023-03-31T10:02:18;7.78;;;1.90;;
56503;SDS011;48812;51.606;-0.114;2023-03-31T10:04:55;5.38;;;1.95;;
56503;SDS011;48812;51.606;-0.114;2023-03-31T10:07:27;7.30;;;1.98;;
56503;SDS011;48812;51.606;-0.114;2023-03-31T10:10:00;7.20;;;2.10;;
56503;SDS011;48812;51.606;-0.114;2023-03-31T10:12:33;9.60;;;2.22;;
56503;SDS011;48812;51.606;-0.114;2023-03-31T10:15:19;5.32;;;2.20;;
56503;SDS011;48812;51.606;-0.114;2023-03-31T10:17:56;6.55;;;1.92;;
56503;SDS011;48812;51.606;-0.114;2023-03-31T10:20:31;6.38;;;2.10;;
56503;SDS011;48812;51.606;-0.114;2023-03-31T10:23:14;6.68;;;1.77;;
56503;SDS011;48812;51.606;-0.114;2023-03-31T10:25:55;8.10;;;2.35;;
56503;SDS011;48812;51.606;-0.114;2023-03-31T10:28:30;5.30;;;1.90;;
56503;SDS011;48812;51.606;-0.114;2023-03-31T10:31:05;6.53;;;1.92;;
56503;SDS011;48812;51.606;-0.114;2023-03-31T10:33:43;7.72;;;2.00;;
56503;SDS011;48812;51.606;-0.114;2023-03-31T10:36:21;5.32;;;2.00;;
56503;SDS011;48812;51.606;-0.114;2023-03-31T10:38:58;8.52;;;1.85;;
56503;SDS011;48812;51.606;-0.114;2023-03-31T10:41:30;6.15;;;1.88;;
56503;SDS011;48812;51.606;-0.114;2023-03-31T10:44:04;6.80;;;2.10;;
56503;SDS011;48812;51.606;-0.114;2023-03-31T10:46:41;6.55;;;2.20;;
56503;SDS011;48812;51.606;-0.114;2023-03-31T10:51:53;6.13;;;2.07;;
56503;SDS011;48812;51.606;-0.114;2023-03-31T10:54:28;9.10;;;1.73;;
56503;SDS011;48812;51.606;-0.114;2023-03-31T10:57:01;5.93;;;1.80;;
56503;SDS011;48812;51.606;-0.114;2023-03-31T11:02:35;5.50;;;1.77;;
56503;SDS011;48812;51.606;-0.114;2023-03-31T11:17:00;5.93;;;2.00;;
56503;SDS011;48812;51.606;-0.114;2023-03-31T11:20:01;5.97;;;1.70;;
56503;SDS011;48812;51.606;-0.114;2023-03-31T11:31:00;3.58;;;1.42;;
56503;SDS011;48812;51.606;-0.114;2023-03-31T11:36:39;5.88;;;1.60;;
56503;SDS011;48812;51.606;-0.114;2023-03-31T11:41:54;4.18;;;1.65;;
56503;SDS011;48812;51.606;-0.114;2023-03-31T11:44:37;4.72;;;1.88;;
56503;SDS011;48812;51.606;-0.114;2023-03-31T11:47:18;5.85;;;1.95;;
56503;SDS011;48812;51.606;-0.114;2023-03-31T11:49:54;3.97;;;1.52;;
56503;SDS011;48812;51.606;-0.114;2023-03-31T11:52:33;4.88;;;1.70;;
56503;SDS011;48812;51.606;-0.114;2023-03-31T12:00:29;3.38;;;1.40;;
56503;SDS011;48812;51.606;-0.114;2023-03-31T12:06:05;4.93;;;1.35;;
56503;SDS011;48812;51.606;-0.114;2023-03-31T12:14:49;3.58;;;1.40;;
56503;SDS011;48812;51.606;-0.114;2023-03-31T12:17:25;5.38;;;1.52;;
56503;SDS011;48812;51.606;-0.114;2023-03-31T12:20:01;4.05;;;1.70;;
56503;SDS011;48812;51.606;-0.114;2023-03-31T12:22:45;4.38;;;1.20;;
56503;SDS011;48812;51.606;-0.114;2023-03-31T12:25:20;3.63;;;1.35;;
56503;SDS011;48812;51.606;-0.114;2023-03-31T12:27:59;3.42;;;1.30;;
56503;SDS011;48812;51.606;-0.114;2023-03-31T12:30:34;4.63;;;1.38;;
56503;SDS011;48812;51.606;-0.114;2023-03-31T12:41:27;4.07;;;1.40;;
56503;SDS011;48812;51.606;-0.114;2023-03-31T12:44:21;3.38;;;1.25;;
56503;SDS011;48812;51.606;-0.114;2023-03-31T12:50:15;3.83;;;1.25;;
56503;SDS011;48812;51.606;-0.114;2023-03-31T12:56:06;4.72;;;1.40;;
56503;SDS011;48812;51.606;-0.114;2023-03-31T12:58:40;2.60;;;1.23;;
56503;SDS011;48812;51.606;-0.114;2023-03-31T13:01:18;3.88;;;1.23;;
56503;SDS011;48812;51.606;-0.114;2023-03-31T13:06:55;2.50;;;1.30;;
56503;SDS011;48812;51.606;-0.114;2023-03-31T13:09:37;3.28;;;1.20;;
56503;SDS011;48812;51.606;-0.114;2023-03-31T13:12:16;3.60;;;1.40;;
56503;SDS011;48812;51.606;-0.114;2023-03-31T13:14:51;4.75;;;1.20;;
56503;SDS011;48812;51.606;-0.114;2023-03-31T13:17:29;3.22;;;1.35;;
56503;SDS011;48812;51.606;-0.114;2023-03-31T13:25:51;1.98;;;1.13;;
56503;SDS011;48812;51.606;-0.114;2023-03-31T13:28:31;2.97;;;1.10;;
56503;SDS011;48812;51.606;-0.114;2023-03-31T13:31:05;2.63;;;1.00;;
56503;SDS011;48812;51.606;-0.114;2023-03-31T13:39:12;2.42;;;1.25;;
56503;SDS011;48812;51.606;-0.114;2023-03-31T13:45:09;3.25;;;1.40;;
56503;SDS011;48812;51.606;-0.114;2023-03-31T13:47:59;3.70;;;1.30;;
56503;SDS011;48812;51.606;-0.114;2023-03-31T13:59:59;2.38;;;1.13;;
56503;SDS011;48812;51.606;-0.114;2023-03-31T14:05:54;2.67;;;1.10;;
56503;SDS011;48812;51.606;-0.114;2023-03-31T14:11:27;2.53;;;1.27;;
56503;SDS011;48812;51.606;-0.114;2023-03-31T14:14:06;3.25;;;1.10;;
56503;SDS011;48812;51.606;-0.114;2023-03-31T14:31:29;2.00;;;0.90;;
56503;SDS011;48812;51.606;-0.114;2023-03-31T14:36:52;1.40;;;1.00;;
56503;SDS011;48812;51.606;-0.114;2023-03-31T14:42:18;1.85;;;0.90;;
56503;SDS011;48812;51.606;-0.114;2023-03-31T14:44:57;2.35;;;0.90;;
56503;SDS011;48812;51.606;-0.114;2023-03-31T14:47:34;2.83;;;0.98;;
56503;SDS011;48812;51.606;-0.114;2023-03-31T14:50:17;1.98;;;1.02;;
56503;SDS011;48812;51.606;-0.114;2023-03-31T14:52:50;1.63;;;0.80;;
56503;SDS011;48812;51.606;-0.114;2023-03-31T14:55:25;2.10;;;0.90;;
56503;SDS011;48812;51.606;-0.114;2023-03-31T14:58:23;1.98;;;1.00;;
56503;SDS011;48812;51.606;-0.114;2023-03-31T15:01:03;2.15;;;0.80;;
56503;SDS011;48812;51.606;-0.114;2023-03-31T15:03:38;2.83;;;0.85;;
56503;SDS011;48812;51.606;-0.114;2023-03-31T15:06:13;3.72;;;0.80;;
56503;SDS011;48812;51.606;-0.114;2023-03-31T15:08:47;4.22;;;1.20;;
56503;SDS011;48812;51.606;-0.114;2023-03-31T15:11:20;3.80;;;1.17;;
56503;SDS011;48812;51.606;-0.114;2023-03-31T15:13:53;1.92;;;0.70;;
56503;SDS011;48812;51.606;-0.114;2023-03-31T15:19:17;3.95;;;1.13;;
56503;SDS011;48812;51.606;-0.114;2023-03-31T15:21:59;1.25;;;0.70;;
56503;SDS011;48812;51.606;-0.114;2023-03-31T15:24:36;3.88;;;0.98;;
56503;SDS011;48812;51.606;-0.114;2023-03-31T15:27:21;4.25;;;0.80;;
56503;SDS011;48812;51.606;-0.114;2023-03-31T15:30:08;2.67;;;0.98;;
56503;SDS011;48812;51.606;-0.114;2023-03-31T15:32:49;2.00;;;0.60;;
56503;SDS011;48812;51.606;-0.114;2023-03-31T15:35:29;5.22;;;0.88;;
56503;SDS011;48812;51.606;-0.114;2023-03-31T15:38:04;2.92;;;0.90;;
56503;SDS011;48812;51.606;-0.114;2023-03-31T15:40:38;2.83;;;1.00;;
56503;SDS011;48812;51.606;-0.114;2023-03-31T15:43:15;1.52;;;0.80;;
56503;SDS011;48812;51.606;-0.114;2023-03-31T15:45:52;3.03;;;0.82;;
56503;SDS011;48812;51.606;-0.114;2023-03-31T15:53:50;1.77;;;0.80;;
56503;SDS011;48812;51.606;-0.114;2023-03-31T15:56:28;2.70;;;0.77;;
56503;SDS011;48812;51.606;-0.114;2023-03-31T15:59:26;1.40;;;0.80;;
56503;SDS011;48812;51.606;-0.114;2023-03-31T16:02:29;1.77;;;0.80;;
56503;SDS011;48812;51.606;-0.114;2023-03-31T16:05:31;1.80;;;0.82;;
56503;SDS011;48812;51.606;-0.114;2023-03-31T16:08:36;3.03;;;0.90;;
56503;SDS011;48812;51.606;-0.114;2023-03-31T16:11:17;2.90;;;0.70;;
56503;SDS011;48812;51.606;-0.114;2023-03-31T16:13:56;2.38;;;0.75;;
56503;SDS011;48812;51.606;-0.114;2023-03-31T16:16:32;2.78;;;1.13;;
56503;SDS011;48812;51.606;-0.114;2023-03-31T16:19:06;2.60;;;0.80;;
56503;SDS011;48812;51.606;-0.114;2023-03-31T16:21:42;2.60;;;0.88;;
56503;SDS011;48812;51.606;-0.114;2023-03-31T16:24:21;1.67;;;0.80;;
56503;SDS011;48812;51.606;-0.114;2023-03-31T16:27:02;2.97;;;0.80;;
56503;SDS011;48812;51.606;-0.114;2023-03-31T16:29:37;3.33;;;0.65;;
56503;SDS011;48812;51.606;-0.114;2023-03-31T16:32:20;3.88;;;0.90;;
56503;SDS011;48812;51.606;-0.114;2023-03-31T16:37:32;2.35;;;0.90;;
56503;SDS011;48812;51.606;-0.114;2023-03-31T16:40:04;3.17;;;0.80;;
56503;SDS011;48812;51.606;-0.114;2023-03-31T16:42:37;1.70;;;0.80;;
56503;SDS011;48812;51.606;-0.114;2023-03-31T16:45:10;4.10;;;1.00;;
56503;SDS011;48812;51.606;-0.114;2023-03-31T16:47:45;2.30;;;0.77;;
56503;SDS011;48812;51.606;-0.114;2023-03-31T16:50:18;2.25;;;0.65;;
56503;SDS011;48812;51.606;-0.114;2023-03-31T16:52:50;3.33;;;0.90;;
56503;SDS011;48812;51.606;-0.114;2023-03-31T16:55:23;3.58;;;0.80;;
56503;SDS011;48812;51.606;-0.114;2023-03-31T17:00:34;5.68;;;0.75;;
56503;SDS011;48812;51.606;-0.114;2023-03-31T17:03:08;4.95;;;0.90;;
56503;SDS011;48812;51.606;-0.114;2023-03-31T17:05:42;7.32;;;1.10;;
56503;SDS011;48812;51.606;-0.114;2023-03-31T17:08:19;4.75;;;1.10;;
56503;SDS011;48812;51.606;-0.114;2023-03-31T17:11:03;3.88;;;0.95;;
56503;SDS011;48812;51.606;-0.114;2023-03-31T17:13:38;13.38;;;1.20;;
56503;SDS011;48812;51.606;-0.114;2023-03-31T17:16:12;4.68;;;0.60;;
56503;SDS011;48812;51.606;-0.114;2023-03-31T17:19:00;6.28;;;1.10;;
56503;SDS011;48812;51.606;-0.114;2023-03-31T17:21:32;9.52;;;1.00;;
56503;SDS011;48812;51.606;-0.114;2023-03-31T17:24:07;2.00;;;0.70;;
56503;SDS011;48812;51.606;-0.114;2023-03-31T17:26:39;4.25;;;1.00;;
56503;SDS011;48812;51.606;-0.114;2023-03-31T17:29:12;2.50;;;1.23;;
56503;SDS011;48812;51.606;-0.114;2023-03-31T17:31:47;1.65;;;0.65;;
56503;SDS011;48812;51.606;-0.114;2023-03-31T17:34:20;2.90;;;0.90;;
56503;SDS011;48812;51.606;-0.114;2023-03-31T17:36:53;1.20;;;0.60;;
56503;SDS011;48812;51.606;-0.114;2023-03-31T17:39:26;4.40;;;0.70;;
56503;SDS011;48812;51.606;-0.114;2023-03-31T17:41:59;4.22;;;0.75;;
56503;SDS011;48812;51.606;-0.114;2023-03-31T17:47:04;2.47;;;0.60;;
56503;SDS011;48812;51.606;-0.114;2023-03-31T17:49:37;1.77;;;0.80;;
56503;SDS011;48812;51.606;-0.114;2023-03-31T17:52:09;4.13;;;0.80;;
56503;SDS011;48812;51.606;-0.114;2023-03-31T17:54:42;1.30;;;0.88;;
56503;SDS011;48812;51.606;-0.114;2023-03-31T17:57:15;2.45;;;0.82;;
56503;SDS011;48812;51.606;-0.114;2023-03-31T17:59:48;2.83;;;0.98;;
56503;SDS011;48812;51.606;-0.114;2023-03-31T18:02:22;2.13;;;0.80;;
56503;SDS011;48812;51.606;-0.114;2023-03-31T18:04:55;1.73;;;0.70;;
56503;SDS011;48812;51.606;-0.114;2023-03-31T18:07:29;3.58;;;0.85;;
56503;SDS011;48812;51.606;-0.114;2023-03-31T18:10:02;2.72;;;0.80;;
56503;SDS011;48812;51.606;-0.114;2023-03-31T18:12:39;3.65;;;0.70;;
56503;SDS011;48812;51.606;-0.114;2023-03-31T18:15:12;4.32;;;0.95;;
56503;SDS011;48812;51.606;-0.114;2023-03-31T18:17:44;2.30;;;1.00;;
56503;SDS011;48812;51.606;-0.114;2023-03-31T18:20:16;2.13;;;1.10;;
56503;SDS011;48812;51.606;-0.114;2023-03-31T18:22:50;2.22;;;0.73;;
56503;SDS011;48812;51.606;-0.114;2023-03-31T18:25:22;2.00;;;0.90;;
56503;SDS011;48812;51.606;-0.114;2023-03-31T18:27:55;4.65;;;1.05;;
56503;SDS011;48812;51.606;-0.114;2023-03-31T18:30:28;1.38;;;0.60;;
56503;SDS011;48812;51.606;-0.114;2023-03-31T18:33:00;1.30;;;0.70;;
56503;SDS011;48812;51.606;-0.114;2023-03-31T18:35:33;3.80;;;0.73;;
56503;SDS011;48812;51.606;-0.114;2023-03-31T18:40:45;5.88;;;0.95;;
56503;SDS011;48812;51.606;-0.114;2023-03-31T18:43:20;3.10;;;0.90;;
56503;SDS011;48812;51.606;-0.114;2023-03-31T18:45:55;7.15;;;1.05;;
56503;SDS011;48812;51.606;-0.114;2023-03-31T18:48:29;6.80;;;1.17;;
56503;SDS011;48812;51.606;-0.114;2023-03-31T18:51:03;6.38;;;0.70;;
56503;SDS011;48812;51.606;-0.114;2023-03-31T18:53:35;3.72;;;0.90;;
56503;SDS011;48812;51.606;-0.114;2023-03-31T18:56:08;2.10;;;0.70;;
56503;SDS011;48812;51.606;-0.114;2023-03-31T18:58:41;5.05;;;1.00;;
56503;SDS011;48812;51.606;-0.114;2023-03-31T19:01:15;1.98;;;0.90;;
56503;SDS011;48812;51.606;-0.114;2023-03-31T19:03:49;2.28;;;0.90;;